createdAt,value
2024-02-11T00:01:50.626Z,1.60
2024-02-11T00:10:46.756Z,2.33
2024-02-11T00:13:20.224Z,2.03
2024-02-11T00:15:48.906Z,1.73
2024-02-11T00:18:29.026Z,1.73
2024-02-11T00:20:57.638Z,2.10
2024-02-11T00:23:25.458Z,2.30
2024-02-11T00:25:58.756Z,1.90
2024-02-11T00:28:27.086Z,1.80
2024-02-11T00:30:57.643Z,1.45
2024-02-11T00:33:26.217Z,1.65
2024-02-11T00:35:54.173Z,1.40
2024-02-11T00:38:22.036Z,1.65
2024-02-11T00:40:50.218Z,1.80
2024-02-11T00:43:18.362Z,1.08
2024-02-11T00:46:06.174Z,1.60
2024-02-11T00:48:57.614Z,1.13
2024-02-11T00:51:57.196Z,1.55
2024-02-11T00:54:28.347Z,1.60
2024-02-11T00:57:11.807Z,1.58
2024-02-11T00:59:42.528Z,1.77
2024-02-11T01:05:23.139Z,1.50
2024-02-11T01:08:22.041Z,1.45
2024-02-11T01:10:56.158Z,1.60
2024-02-11T01:13:31.638Z,1.80
2024-02-11T01:16:05.676Z,1.55
2024-02-11T01:18:44.741Z,2.50
2024-02-11T01:21:14.009Z,2.92
2024-02-11T01:23:51.599Z,2.70
2024-02-11T01:26:42.698Z,2.00
2024-02-11T01:29:19.444Z,2.75
2024-02-11T01:31:54.638Z,2.40
2024-02-11T01:34:22.903Z,1.85
2024-02-11T01:36:51.396Z,3.05
2024-02-11T01:39:19.291Z,1.95
2024-02-11T01:41:47.145Z,1.73
2024-02-11T01:44:18.734Z,1.90
2024-02-11T01:46:48.875Z,2.00
2024-02-11T01:49:16.781Z,2.20
2024-02-11T01:51:48.925Z,1.75
2024-02-11T01:54:18.868Z,2.30
2024-02-11T01:56:50.325Z,2.70
2024-02-11T01:59:19.631Z,2.10
2024-02-11T02:01:47.748Z,2.88
2024-02-11T02:04:16.864Z,2.83
2024-02-11T02:06:46.731Z,2.92
2024-02-11T02:09:15.943Z,1.77
2024-02-11T02:11:43.834Z,1.55
2024-02-11T02:14:11.816Z,2.33
2024-02-11T02:16:44.540Z,2.55
2024-02-11T02:19:16.347Z,1.63
2024-02-11T02:21:55.555Z,2.10
2024-02-11T02:24:23.385Z,1.75
2024-02-11T02:27:10.419Z,1.75
2024-02-11T02:29:38.412Z,1.08
2024-02-11T02:32:06.562Z,1.20
2024-02-11T02:34:34.673Z,0.98
2024-02-11T02:37:07.740Z,0.80
2024-02-11T02:39:35.614Z,0.60
2024-02-11T02:42:03.441Z,0.70
2024-02-11T02:44:32.195Z,0.43
2024-02-11T02:47:00.777Z,0.30
2024-02-11T02:49:29.837Z,0.50
2024-02-11T02:52:03.134Z,0.40
2024-02-11T02:54:31.011Z,0.50
2024-02-11T02:56:59.986Z,0.63
2024-02-11T02:59:28.647Z,0.55
2024-02-11T03:02:04.704Z,0.52
2024-02-11T03:04:32.793Z,0.40
2024-02-11T03:07:00.864Z,0.55
2024-02-11T03:09:28.681Z,1.55
2024-02-11T03:11:56.569Z,6.82
2024-02-11T03:14:24.467Z,11.23
2024-02-11T03:16:52.351Z,9.57
2024-02-11T03:19:21.734Z,10.93
2024-02-11T03:21:54.074Z,9.32
2024-02-11T03:24:23.097Z,6.35
2024-02-11T03:27:10.205Z,9.52
2024-02-11T03:29:39.016Z,8.50
2024-02-11T03:32:07.185Z,7.95
2024-02-11T03:34:35.121Z,7.28
2024-02-11T03:37:09.192Z,3.90
2024-02-11T03:39:37.269Z,4.72
2024-02-11T03:42:08.269Z,3.67
2024-02-11T03:44:36.209Z,3.13
2024-02-11T03:47:06.091Z,2.80
2024-02-11T03:49:36.794Z,2.00
2024-02-11T03:52:04.813Z,1.63
2024-02-11T03:54:32.656Z,1.77
2024-02-11T03:57:00.889Z,1.70
2024-02-11T03:59:28.973Z,1.40
2024-02-11T04:01:57.216Z,1.75
2024-02-11T04:04:26.598Z,1.63
2024-02-11T04:06:55.697Z,1.02
2024-02-11T04:09:30.219Z,1.17
2024-02-11T04:12:04.768Z,0.77
2024-02-11T04:14:33.346Z,0.73
2024-02-11T04:17:03.764Z,0.60
2024-02-11T04:19:33.774Z,0.70
2024-02-11T04:22:01.683Z,0.70
2024-02-11T04:24:29.740Z,1.00
2024-02-11T04:26:58.609Z,1.00
2024-02-11T04:29:26.502Z,1.50
2024-02-11T04:31:54.935Z,1.38
2024-02-11T04:34:23.441Z,0.90
2024-02-11T04:36:51.724Z,1.10
2024-02-11T04:39:20.327Z,1.50
2024-02-11T04:41:48.157Z,1.52
2024-02-11T04:44:16.797Z,1.60
2024-02-11T04:46:47.171Z,1.20
2024-02-11T04:49:15.042Z,1.52
2024-02-11T04:51:42.822Z,1.10
2024-02-11T04:54:10.675Z,1.50
2024-02-11T04:56:45.186Z,1.40
2024-02-11T04:59:16.596Z,1.33
2024-02-11T05:01:44.984Z,0.77
2024-02-11T05:04:14.745Z,0.57
2024-02-11T05:06:44.720Z,0.82
2024-02-11T05:09:13.274Z,0.70
2024-02-11T05:11:41.249Z,0.60
2024-02-11T05:14:09.262Z,0.45
2024-02-11T05:16:56.503Z,0.70
2024-02-11T05:19:24.804Z,0.90
2024-02-11T05:21:53.613Z,0.70
2024-02-11T05:24:22.193Z,0.90
2024-02-11T05:26:51.363Z,1.15
2024-02-11T05:29:19.351Z,0.80
2024-02-11T05:31:48.671Z,1.10
2024-02-11T05:34:19.395Z,0.77
2024-02-11T05:36:52.975Z,1.40
2024-02-11T05:39:20.936Z,0.88
2024-02-11T05:41:49.198Z,1.05
2024-02-11T05:44:17.232Z,1.17
2024-02-11T05:46:45.808Z,1.25
2024-02-11T05:49:13.901Z,1.40
2024-02-11T05:51:41.776Z,2.30
2024-02-11T05:54:09.520Z,1.52
2024-02-11T05:56:56.404Z,1.90
2024-02-11T05:59:26.543Z,2.75
2024-02-11T06:01:55.146Z,2.78
2024-02-11T06:04:23.019Z,2.60
2024-02-11T06:06:51.144Z,2.60
2024-02-11T06:09:22.635Z,3.20
2024-02-11T06:11:50.442Z,2.85
2024-02-11T06:14:18.264Z,2.97
2024-02-11T06:16:47.053Z,2.55
2024-02-11T06:19:15.164Z,3.20
2024-02-11T06:21:43.053Z,3.00
2024-02-11T06:24:10.935Z,2.65
2024-02-11T06:27:00.620Z,2.65
2024-02-11T06:29:28.682Z,1.63
2024-02-11T06:31:56.638Z,1.27
2024-02-11T06:34:26.717Z,1.50
2024-02-11T06:36:57.265Z,0.60
2024-02-11T06:39:25.711Z,0.90
2024-02-11T06:41:53.747Z,0.90
2024-02-11T06:44:27.770Z,1.10
2024-02-11T06:46:58.368Z,1.20
2024-02-11T06:49:29.606Z,2.08
2024-02-11T06:51:58.478Z,2.13
2024-02-11T06:54:29.813Z,2.70
2024-02-11T06:56:59.690Z,3.95
2024-02-11T06:59:27.502Z,4.45
2024-02-11T07:01:58.231Z,4.13
2024-02-11T07:04:34.229Z,4.75
2024-02-11T07:07:05.831Z,4.40
2024-02-11T07:09:33.692Z,3.60
2024-02-11T07:12:02.238Z,3.10
2024-02-11T07:14:30.476Z,2.92
2024-02-11T07:16:59.555Z,3.60
2024-02-11T07:19:27.417Z,4.60
2024-02-11T07:21:55.184Z,4.55
2024-02-11T07:24:23.629Z,3.97
2024-02-11T07:27:16.761Z,4.30
2024-02-11T07:29:45.573Z,3.90
2024-02-11T07:32:14.475Z,2.78
2024-02-11T07:34:42.779Z,3.30
2024-02-11T07:37:30.975Z,2.42
2024-02-11T07:39:59.583Z,2.80
2024-02-11T07:42:28.222Z,2.80
2024-02-11T07:45:00.165Z,2.90
2024-02-11T07:47:31.520Z,2.45
2024-02-11T07:49:59.597Z,2.70
2024-02-11T07:52:28.359Z,2.17
2024-02-11T07:54:56.102Z,2.53
2024-02-11T07:57:28.349Z,2.97
2024-02-11T07:59:56.135Z,2.95
2024-02-11T08:02:24.545Z,3.03
2024-02-11T08:04:52.422Z,3.30
2024-02-11T08:07:42.551Z,3.38
2024-02-11T08:10:10.580Z,3.53
2024-02-11T08:12:38.443Z,3.58
2024-02-11T08:15:06.619Z,3.60
2024-02-11T08:17:35.610Z,3.30
2024-02-11T08:20:03.628Z,3.13
2024-02-11T08:22:32.059Z,2.95
2024-02-11T08:25:03.131Z,3.55
2024-02-11T08:27:33.670Z,3.10
2024-02-11T08:30:05.396Z,2.80
2024-02-11T08:32:33.461Z,2.70
2024-02-11T08:35:04.251Z,3.05
2024-02-11T08:37:36.995Z,3.63
2024-02-11T08:40:05.087Z,3.10
2024-02-11T08:42:33.072Z,2.80
2024-02-11T08:45:00.885Z,2.92
2024-02-11T08:47:51.544Z,3.28
2024-02-11T08:50:20.619Z,3.25
2024-02-11T08:52:51.187Z,3.38
2024-02-11T08:55:19.224Z,3.08
2024-02-11T09:10:52.573Z,4.63
2024-02-11T09:50:36.918Z,7.10
2024-02-11T10:19:23.729Z,6.20
2024-02-11T10:22:09.699Z,6.18
2024-02-11T10:24:45.784Z,6.20
2024-02-11T10:27:18.177Z,6.30
2024-02-11T10:29:49.400Z,6.07
2024-02-11T10:32:18.707Z,5.97
2024-02-11T10:34:49.043Z,4.55
2024-02-11T10:37:28.191Z,4.07
2024-02-11T10:40:02.960Z,4.43
2024-02-11T10:42:38.123Z,4.10
2024-02-11T10:45:11.576Z,4.13
2024-02-11T10:47:59.404Z,4.32
2024-02-11T10:50:38.835Z,3.70
2024-02-11T10:53:11.157Z,4.30
2024-02-11T10:56:01.390Z,4.30
2024-02-11T10:58:35.316Z,4.13
2024-02-11T11:01:11.531Z,4.45
2024-02-11T11:03:41.818Z,4.50
2024-02-11T11:06:12.891Z,3.63
2024-02-11T11:09:16.926Z,4.20
2024-02-11T11:15:33.434Z,4.78
2024-02-11T11:29:18.484Z,4.30
2024-02-11T11:31:57.957Z,4.53
2024-02-11T11:34:43.562Z,4.35
2024-02-11T11:37:32.158Z,4.20
2024-02-11T12:01:24.991Z,3.80
2024-02-11T12:04:12.257Z,4.32
2024-02-11T12:07:09.403Z,4.20
2024-02-11T12:10:05.352Z,4.78
2024-02-11T12:23:36.804Z,6.03
2024-02-11T12:38:18.064Z,5.90
2024-02-11T12:41:01.237Z,5.90
2024-02-11T12:44:16.971Z,5.47
2024-02-11T12:47:15.619Z,4.88
2024-02-11T12:53:58.303Z,5.00
2024-02-11T12:56:33.381Z,5.15
2024-02-11T13:36:24.853Z,5.75
2024-02-11T16:17:25.471Z,8.98
2024-02-11T16:39:17.270Z,8.98
2024-02-11T17:30:48.499Z,11.60
2024-02-11T17:33:32.272Z,10.77
2024-02-11T17:36:08.785Z,11.63
2024-02-11T17:38:39.338Z,10.65
2024-02-11T17:41:17.130Z,11.02
2024-02-11T17:43:48.603Z,10.40
2024-02-11T17:46:22.462Z,9.90
2024-02-11T17:48:54.555Z,10.70
2024-02-11T17:51:58.975Z,11.48
2024-02-11T17:54:32.714Z,10.02
2024-02-11T17:57:02.287Z,10.60
2024-02-11T17:59:31.253Z,10.48
2024-02-11T18:02:08.724Z,9.77
2024-02-11T18:04:45.507Z,10.02
2024-02-11T18:07:40.972Z,10.95
2024-02-11T18:10:10.176Z,10.32
2024-02-11T18:12:49.925Z,11.13
2024-02-11T18:15:25.128Z,10.13
2024-02-11T18:18:24.406Z,8.65
2024-02-11T18:20:54.880Z,9.57
2024-02-11T18:23:27.155Z,8.88
2024-02-11T18:26:07.344Z,9.35
2024-02-11T18:28:40.551Z,7.97
2024-02-11T18:31:19.785Z,8.73
2024-02-11T18:33:48.010Z,8.75
2024-02-11T18:36:16.922Z,9.15
2024-02-11T18:38:45.467Z,9.48
2024-02-11T18:41:14.087Z,10.85
2024-02-11T18:43:44.301Z,10.70
2024-02-11T18:46:13.642Z,10.70
2024-02-11T18:48:42.094Z,10.52
2024-02-11T18:51:12.696Z,9.70
2024-02-11T18:53:40.534Z,11.00
2024-02-11T18:56:08.543Z,10.60
2024-02-11T18:58:38.781Z,11.80
2024-02-11T19:01:06.944Z,12.57
2024-02-11T19:03:34.939Z,12.95
2024-02-11T19:06:03.313Z,13.15
2024-02-11T19:08:33.157Z,12.40
2024-02-11T19:11:01.158Z,12.68
2024-02-11T19:13:29.025Z,12.10
2024-02-11T19:15:57.183Z,12.45
2024-02-11T19:18:27.981Z,11.95
2024-02-11T19:20:55.888Z,12.27
2024-02-11T19:23:23.856Z,14.57
2024-02-11T19:25:52.519Z,13.30
2024-02-11T19:28:21.450Z,13.32
2024-02-11T19:30:49.556Z,13.15
2024-02-11T19:33:19.008Z,13.15
2024-02-11T19:35:47.104Z,12.93
2024-02-11T19:38:17.045Z,13.70
2024-02-11T19:40:46.679Z,13.80
2024-02-11T19:43:14.863Z,13.10
2024-02-11T19:45:42.984Z,13.20
2024-02-11T19:48:18.422Z,12.20
2024-02-11T19:50:47.044Z,12.07
2024-02-11T19:53:25.548Z,12.05
2024-02-11T19:56:04.389Z,11.98
2024-02-11T19:58:34.029Z,12.10
2024-02-11T20:01:05.453Z,11.20
2024-02-11T20:03:36.804Z,11.23
2024-02-11T20:06:07.389Z,11.82
2024-02-11T20:08:37.612Z,13.93
2024-02-11T20:11:08.292Z,12.07
2024-02-11T20:13:36.813Z,12.02
2024-02-11T20:16:05.015Z,13.02
2024-02-11T20:18:33.383Z,12.00
2024-02-11T20:21:04.200Z,13.18
2024-02-11T20:23:32.359Z,13.30
2024-02-11T20:26:00.429Z,12.15
2024-02-11T20:28:30.014Z,11.40
2024-02-11T20:30:58.248Z,12.52
2024-02-11T20:33:27.018Z,11.73
2024-02-11T20:35:55.530Z,13.48
2024-02-11T20:38:23.744Z,14.25
2024-02-11T20:40:52.063Z,13.88
2024-02-11T20:43:21.177Z,12.68
2024-02-11T20:45:50.770Z,11.85
2024-02-11T20:48:19.544Z,12.98
2024-02-11T20:50:47.701Z,14.75
2024-02-11T20:53:15.733Z,12.63
2024-02-11T20:55:43.681Z,11.75
2024-02-11T20:58:11.707Z,11.88
2024-02-11T21:00:40.092Z,14.00
2024-02-11T21:03:10.289Z,13.93
2024-02-11T21:05:38.936Z,12.57
2024-02-11T21:08:07.240Z,11.95
2024-02-11T21:10:35.186Z,12.40
2024-02-11T21:13:03.915Z,13.25
2024-02-11T21:15:31.871Z,13.82
2024-02-11T21:17:59.855Z,12.63
2024-02-11T21:20:31.075Z,14.45
2024-02-11T21:22:59.497Z,14.85
2024-02-11T21:25:28.327Z,13.75
2024-02-11T21:27:58.382Z,14.70
2024-02-11T21:30:28.714Z,14.25
2024-02-11T21:33:02.930Z,13.70
2024-02-11T21:35:31.276Z,13.85
2024-02-11T21:37:59.499Z,11.90
2024-02-11T21:43:12.852Z,12.25
2024-02-11T21:45:40.890Z,12.35
2024-02-11T21:48:08.808Z,11.95
2024-02-11T21:50:37.210Z,11.55
2024-02-11T21:53:07.012Z,12.73
2024-02-11T21:55:34.989Z,12.25
2024-02-11T21:58:02.854Z,12.00
2024-02-11T22:00:32.730Z,11.23
2024-02-11T22:03:00.832Z,12.07
2024-02-11T22:05:28.938Z,12.63
2024-02-11T22:07:57.031Z,11.98
2024-02-11T22:10:24.926Z,12.38
2024-02-11T22:12:52.856Z,11.63
2024-02-11T22:15:21.440Z,12.15
2024-02-11T22:17:53.729Z,12.30
2024-02-11T22:20:21.860Z,12.20
2024-02-11T22:22:49.875Z,12.50
2024-02-11T22:25:19.408Z,12.27
2024-02-11T22:27:49.255Z,13.65
2024-02-11T22:30:18.781Z,13.82
2024-02-11T22:32:46.843Z,14.65
2024-02-11T22:35:16.484Z,14.88
2024-02-11T22:37:46.413Z,14.18
2024-02-11T22:40:17.456Z,15.60
2024-02-11T22:42:47.742Z,15.77
2024-02-11T22:45:15.860Z,17.70
2024-02-11T22:47:43.765Z,17.70
2024-02-11T22:50:13.058Z,17.98
2024-02-11T22:52:41.967Z,18.42
2024-02-11T22:55:12.128Z,16.55
2024-02-11T22:57:40.338Z,15.85
2024-02-11T23:00:31.663Z,14.98
2024-02-11T23:03:01.742Z,14.30
2024-02-11T23:05:30.987Z,13.18
2024-02-11T23:07:59.969Z,13.75
2024-02-11T23:10:27.717Z,13.50
2024-02-11T23:13:00.802Z,14.05
2024-02-11T23:15:32.276Z,14.15
2024-02-11T23:18:07.881Z,14.63
2024-02-11T23:20:35.735Z,15.82
2024-02-11T23:23:06.858Z,14.82
2024-02-11T23:25:38.788Z,14.23
2024-02-11T23:28:06.755Z,15.13
2024-02-11T23:30:34.519Z,14.48
2024-02-11T23:33:02.446Z,13.32
2024-02-11T23:35:33.211Z,12.63
2024-02-11T23:38:01.417Z,13.20
2024-02-11T23:40:29.503Z,13.57
2024-02-11T23:42:57.440Z,14.05
2024-02-11T23:45:28.091Z,14.07
2024-02-11T23:47:56.759Z,14.10
2024-02-11T23:50:25.037Z,14.75
2024-02-11T23:52:53.948Z,14.45
2024-02-11T23:55:41.237Z,15.13
2024-02-11T23:58:10.111Z,13.80
